Time;durP1;ratioP1;P1;durP2;ratioP2;P2;SDS_P1;SDS_P2;PMS_P1;PMS_P2;Temp;Humidity;BMP_temperature;BMP_pressure;BME280_temperature;BME280_humidity;BME280_pressure;Samples;Min_cycle;Max_cycle;Signal;HPM_P1;HPM_P2
2022/10/23 00:00:45;;;;;;;24.67;6.65;;;;;;;;;;5008892;28;20052;-45
2022/10/23 00:03:11;;;;;;;20.73;6.55;;;;;;;;;;5005586;28;20037;-46
2022/10/23 00:05:39;;;;;;;23.60;7.03;;;;;;;;;;5006376;28;20116;-43
2022/10/23 00:08:05;;;;;;;23.58;6.22;;;;;;;;;;5007381;28;20103;-48
2022/10/23 00:10:30;;;;;;;21.52;7.28;;;;;;;;;;5008935;28;20433;-48
2022/10/23 00:12:55;;;;;;;25.00;6.82;;;;;;;;;;5007503;28;20452;-49
2022/10/23 00:15:21;;;;;;;16.77;6.75;;;;;;;;;;5005623;28;20026;-46
2022/10/23 00:17:47;;;;;;;22.25;5.97;;;;;;;;;;5006909;28;20038;-45
2022/10/23 00:20:14;;;;;;;20.55;6.90;;;;;;;;;;5004626;28;20034;-43
2022/10/23 00:22:40;;;;;;;22.77;6.63;;;;;;;;;;5007004;28;20141;-44
2022/10/23 00:25:07;;;;;;;25.98;6.78;;;;;;;;;;5006299;28;20156;-45
2022/10/23 00:27:33;;;;;;;20.77;6.88;;;;;;;;;;5005463;28;20042;-46
2022/10/23 00:29:58;;;;;;;20.92;6.70;;;;;;;;;;5006550;28;20038;-43
2022/10/23 00:32:24;;;;;;;17.45;7.00;;;;;;;;;;5007280;28;20049;-43
2022/10/23 00:34:49;;;;;;;20.70;7.05;;;;;;;;;;5007147;28;20065;-44
2022/10/23 00:37:15;;;;;;;26.63;6.78;;;;;;;;;;5002767;28;20042;-46
2022/10/23 00:39:40;;;;;;;16.83;6.82;;;;;;;;;;5004992;28;20080;-46
2022/10/23 00:42:05;;;;;;;21.33;6.43;;;;;;;;;;5007096;28;20046;-43
2022/10/23 00:44:31;;;;;;;19.30;6.68;;;;;;;;;;5006174;28;20018;-44
2022/10/23 00:46:58;;;;;;;19.90;7.05;;;;;;;;;;5007086;28;20088;-44
2022/10/23 00:49:24;;;;;;;22.23;6.57;;;;;;;;;;5006013;28;20426;-46
2022/10/23 00:51:56;;;;;;;20.35;7.13;;;;;;;;;;5007920;28;20139;-49
2022/10/23 00:54:24;;;;;;;;;;;;;;;;;;5009584;28;20026;-44
2022/10/23 00:56:51;;;;;;;19.38;5.85;;;;;;;;;;5005829;28;19921;-44
2022/10/23 00:59:16;;;;;;;19.20;6.57;;;;;;;;;;5007146;28;20097;-43
2022/10/23 01:01:42;;;;;;;19.98;6.53;;;;;;;;;;5006991;28;20125;-43
2022/10/23 01:04:08;;;;;;;24.65;8.32;;;;;;;;;;5007109;28;21906;-45
2022/10/23 01:06:44;;;;;;;18.23;6.80;;;;;;;;;;5007766;28;20403;-43
2022/10/23 01:09:36;;;;;;;16.92;7.20;;;;;;;;;;5010231;28;20057;-44
2022/10/23 01:12:15;;;;;;;;;;;;;;;;;;5012091;28;20514;-43
2022/10/23 01:15:01;;;;;;;21.05;6.15;;;;;;;;;;5008158;28;19963;-43
2022/10/23 01:17:36;;;;;;;16.30;6.50;;;;;;;;;;5008182;28;20049;-44
2022/10/23 01:20:30;;;;;;;17.95;6.70;;;;;;;;;;5011225;28;20022;-43
2022/10/23 01:23:11;;;;;;;16.48;7.20;;;;;;;;;;5010500;28;20050;-46
2022/10/23 01:26:14;;;;;;;20.98;7.15;;;;;;;;;;5008539;28;20025;-42
2022/10/23 01:28:58;;;;;;;17.15;6.10;;;;;;;;;;5010782;28;20120;-43
2022/10/23 01:31:36;;;;;;;24.90;7.15;;;;;;;;;;5011261;28;20046;-43
2022/10/23 01:34:12;;;;;;;23.73;7.10;;;;;;;;;;5009437;28;20087;-43
2022/10/23 01:36:40;;;;;;;18.13;6.32;;;;;;;;;;5006309;28;20173;-43
2022/10/23 01:39:13;;;;;;;19.38;6.75;;;;;;;;;;5008990;28;20045;-43
2022/10/23 01:41:47;;;;;;;23.80;7.13;;;;;;;;;;5009677;28;20109;-43
2022/10/23 01:44:18;;;;;;;23.48;5.80;;;;;;;;;;5012454;28;20022;-43
2022/10/23 01:46:47;;;;;;;17.23;6.53;;;;;;;;;;5008404;28;20038;-43
2022/10/23 01:49:13;;;;;;;17.20;6.65;;;;;;;;;;5010291;28;20025;-43
2022/10/23 01:51:46;;;;;;;27.77;6.70;;;;;;;;;;5010757;28;20049;-45
2022/10/23 01:54:14;;;;;;;24.02;6.47;;;;;;;;;;5011466;28;20068;-43
2022/10/23 01:56:43;;;;;;;21.15;6.88;;;;;;;;;;5006261;28;20034;-44
2022/10/23 01:59:12;;;;;;;16.80;5.65;;;;;;;;;;5009209;28;20030;-43
2022/10/23 02:01:43;;;;;;;20.80;6.57;;;;;;;;;;5007074;28;20508;-43
2022/10/23 02:04:13;;;;;;;26.58;7.38;;;;;;;;;;5008606;28;20034;-48
2022/10/23 02:06:39;;;;;;;20.10;6.70;;;;;;;;;;5008427;28;20514;-45
2022/10/23 02:09:05;;;;;;;29.02;6.47;;;;;;;;;;5009765;28;20050;-46
2022/10/23 02:11:40;;;;;;;17.05;6.50;;;;;;;;;;5008142;28;20037;-43
2022/10/23 02:14:14;;;;;;;26.83;7.20;;;;;;;;;;5008082;28;20033;-43
2022/10/23 02:16:44;;;;;;;23.20;7.32;;;;;;;;;;5007087;28;20038;-45
2022/10/23 02:19:41;;;;;;;19.35;5.85;;;;;;;;;;5009192;28;20037;-47
2022/10/23 02:22:12;;;;;;;18.42;7.35;;;;;;;;;;5006996;28;20053;-43
2022/10/23 02:25:19;;;;;;;30.33;6.88;;;;;;;;;;5009136;28;20049;-45
2022/10/23 02:27:49;;;;;;;32.63;6.93;;;;;;;;;;5008437;28;20422;-43
2022/10/23 02:30:17;;;;;;;23.17;6.50;;;;;;;;;;5008622;28;20030;-46
2022/10/23 02:32:51;;;;;;;21.55;7.13;;;;;;;;;;5009671;28;20105;-44
2022/10/23 02:35:19;;;;;;;24.23;6.63;;;;;;;;;;5007953;28;20379;-44
2022/10/23 02:37:55;;;;;;;23.08;6.93;;;;;;;;;;5009248;28;20048;-43
2022/10/23 02:40:23;;;;;;;21.77;6.93;;;;;;;;;;5008070;28;20042;-43
2022/10/23 02:43:00;;;;;;;23.92;7.25;;;;;;;;;;5009072;28;20058;-43
2022/10/23 02:45:32;;;;;;;23.10;7.03;;;;;;;;;;5003782;28;20109;-43
2022/10/23 02:48:00;;;;;;;28.55;6.97;;;;;;;;;;5004563;28;20165;-44
2022/10/23 02:50:32;;;;;;;29.00;7.50;;;;;;;;;;5008694;28;20496;-43
2022/10/23 02:53:14;;;;;;;32.15;7.78;;;;;;;;;;5008487;28;20069;-45
2022/10/23 02:55:58;;;;;;;26.73;7.78;;;;;;;;;;5006514;28;20022;-46
2022/10/23 02:58:28;;;;;;;24.63;7.10;;;;;;;;;;5006816;28;20121;-44
2022/10/23 03:01:03;;;;;;;19.42;7.03;;;;;;;;;;5007296;28;20037;-45
2022/10/23 03:03:36;;;;;;;28.63;7.90;;;;;;;;;;5009411;28;20426;-44
2022/10/23 03:06:02;;;;;;;25.20;7.47;;;;;;;;;;5005509;28;20445;-42
2022/10/23 03:08:27;;;;;;;22.23;6.85;;;;;;;;;;5010081;28;20030;-49
2022/10/23 03:10:53;;;;;;;24.08;7.20;;;;;;;;;;5007959;28;20037;-47
2022/10/23 03:13:18;;;;;;;18.55;7.63;;;;;;;;;;5007243;28;20041;-43
2022/10/23 03:15:44;;;;;;;25.30;8.20;;;;;;;;;;5009472;28;20057;-43
2022/10/23 03:18:09;;;;;;;28.15;8.20;;;;;;;;;;5003008;28;20044;-45
2022/10/23 03:20:34;;;;;;;25.42;8.02;;;;;;;;;;5007614;28;20180;-44
2022/10/23 03:23:00;;;;;;;26.02;7.03;;;;;;;;;;5005833;28;20056;-45
2022/10/23 03:25:25;;;;;;;29.77;7.00;;;;;;;;;;5007254;28;20728;-46
2022/10/23 03:27:51;;;;;;;30.75;6.93;;;;;;;;;;5006186;28;20474;-43
2022/10/23 03:30:16;;;;;;;21.63;7.80;;;;;;;;;;5006783;28;20084;-45
2022/10/23 03:32:42;;;;;;;31.08;7.60;;;;;;;;;;5008988;28;20375;-46
2022/10/23 03:35:07;;;;;;;26.45;7.40;;;;;;;;;;5005883;28;20026;-44
2022/10/23 03:37:33;;;;;;;26.73;7.40;;;;;;;;;;5008000;28;20041;-44
2022/10/23 03:39:58;;;;;;;18.85;6.72;;;;;;;;;;5010394;28;20033;-45
2022/10/23 03:42:23;;;;;;;22.40;7.00;;;;;;;;;;5008198;28;20049;-43
2022/10/23 03:44:49;;;;;;;23.15;7.65;;;;;;;;;;5008736;28;20434;-43
2022/10/23 03:47:14;;;;;;;21.90;7.28;;;;;;;;;;5007848;28;20030;-44
2022/10/23 03:49:40;;;;;;;23.88;6.97;;;;;;;;;;5005646;28;20129;-47
2022/10/23 03:52:06;;;;;;;27.38;7.85;;;;;;;;;;5004504;28;20069;-46
2022/10/23 03:54:32;;;;;;;27.38;7.22;;;;;;;;;;5009452;28;20026;-45
2022/10/23 03:56:58;;;;;;;29.38;7.63;;;;;;;;;;5005548;28;20100;-43
2022/10/23 03:59:24;;;;;;;22.85;7.22;;;;;;;;;;5007116;28;20022;-43
2022/10/23 04:01:49;;;;;;;28.48;7.53;;;;;;;;;;5007425;28;20549;-43
2022/10/23 04:04:15;;;;;;;30.83;7.53;;;;;;;;;;5007880;28;20473;-44
2022/10/23 04:06:40;;;;;;;27.60;7.28;;;;;;;;;;5005442;28;20100;-43
2022/10/23 04:09:06;;;;;;;21.83;6.78;;;;;;;;;;5006466;28;20034;-44
2022/10/23 04:11:32;;;;;;;22.17;6.93;;;;;;;;;;5006467;28;20133;-45
2022/10/23 04:13:57;;;;;;;22.63;6.95;;;;;;;;;;5009395;28;20025;-47
2022/10/23 04:16:24;;;;;;;27.73;7.75;;;;;;;;;;5006347;28;20046;-43
2022/10/23 04:18:49;;;;;;;26.77;8.45;;;;;;;;;;5006446;28;21718;-43
2022/10/23 04:21:15;;;;;;;22.20;7.47;;;;;;;;;;5006594;28;20111;-46
2022/10/23 04:23:40;;;;;;;34.05;7.95;;;;;;;;;;5005371;28;20030;-44
2022/10/23 04:26:06;;;;;;;27.10;7.53;;;;;;;;;;5008432;28;20068;-45
2022/10/23 04:28:31;;;;;;;30.25;7.38;;;;;;;;;;5004213;28;20041;-45
2022/10/23 04:30:56;;;;;;;30.77;8.05;;;;;;;;;;5004879;28;20097;-47
2022/10/23 04:33:22;;;;;;;30.63;6.97;;;;;;;;;;5008111;28;20041;-48
2022/10/23 04:35:48;;;;;;;31.23;7.32;;;;;;;;;;5008007;28;20037;-44
2022/10/23 04:38:13;;;;;;;23.88;7.60;;;;;;;;;;5002045;28;20042;-44
2022/10/23 04:40:38;;;;;;;33.42;7.70;;;;;;;;;;5006321;28;20029;-43
2022/10/23 04:43:04;;;;;;;23.65;6.55;;;;;;;;;;5004449;28;20463;-43
2022/10/23 04:45:29;;;;;;;29.90;7.97;;;;;;;;;;5007452;28;20030;-46
2022/10/23 04:47:55;;;;;;;31.05;7.88;;;;;;;;;;5006000;28;20042;-44
2022/10/23 04:50:21;;;;;;;24.58;7.80;;;;;;;;;;5008037;28;20045;-48
2022/10/23 04:52:47;;;;;;;29.83;8.05;;;;;;;;;;5005004;28;20041;-43
2022/10/23 04:55:13;;;;;;;30.17;8.32;;;;;;;;;;5008515;28;20022;-43
2022/10/23 04:57:38;;;;;;;25.27;8.13;;;;;;;;;;5005005;28;20539;-44
2022/10/23 05:00:07;;;;;;;25.17;7.57;;;;;;;;;;5007594;28;20060;-48
2022/10/23 05:02:32;;;;;;;37.22;9.48;;;;;;;;;;5006313;28;20068;-48
2022/10/23 05:04:58;;;;;;;25.48;7.97;;;;;;;;;;5008988;28;20030;-43
2022/10/23 05:07:23;;;;;;;29.80;7.65;;;;;;;;;;5005035;28;20042;-46
2022/10/23 05:09:48;;;;;;;30.65;7.60;;;;;;;;;;5007439;28;20043;-45
2022/10/23 05:12:14;;;;;;;25.40;6.72;;;;;;;;;;5007416;28;20053;-46
2022/10/23 05:14:39;;;;;;;24.85;8.30;;;;;;;;;;5006674;28;20112;-47
2022/10/23 05:17:16;;;;;;;21.65;7.38;;;;;;;;;;5003050;28;20057;-44
2022/10/23 05:19:50;;;;;;;25.60;7.28;;;;;;;;;;5007845;28;20044;-45
2022/10/23 05:22:17;;;;;;;30.08;7.35;;;;;;;;;;5001747;28;20054;-47
2022/10/23 05:24:42;;;;;;;26.63;7.60;;;;;;;;;;5007102;28;20678;-45
2022/10/23 05:27:08;;;;;;;32.65;8.85;;;;;;;;;;5004940;28;20038;-45
2022/10/23 05:29:33;;;;;;;25.48;7.80;;;;;;;;;;5007070;28;20028;-47
2022/10/23 05:32:03;;;;;;;26.67;7.15;;;;;;;;;;5005319;28;20513;-43
2022/10/23 05:34:31;;;;;;;25.88;7.32;;;;;;;;;;5006744;28;20022;-44
2022/10/23 05:36:56;;;;;;;24.17;7.22;;;;;;;;;;5007637;28;20042;-43
2022/10/23 05:39:22;;;;;;;41.17;7.25;;;;;;;;;;5005254;28;20026;-46
2022/10/23 05:41:47;;;;;;;27.40;7.75;;;;;;;;;;5003116;28;20042;-44
2022/10/23 05:44:13;;;;;;;25.00;6.60;;;;;;;;;;5008643;28;20094;-46
2022/10/23 05:46:41;;;;;;;24.52;6.72;;;;;;;;;;5007310;28;20060;-45
2022/10/23 05:49:07;;;;;;;24.50;7.57;;;;;;;;;;5006210;28;20046;-43
2022/10/23 05:51:36;;;;;;;26.75;7.60;;;;;;;;;;5007944;28;20065;-44
2022/10/23 05:54:02;;;;;;;19.70;6.72;;;;;;;;;;5010372;28;20073;-44
2022/10/23 05:56:27;;;;;;;27.80;6.95;;;;;;;;;;5008281;28;20061;-43
2022/10/23 05:58:52;;;;;;;27.20;6.93;;;;;;;;;;5009333;28;20037;-43
2022/10/23 06:01:18;;;;;;;29.67;8.30;;;;;;;;;;5010228;28;20684;-46
2022/10/23 06:03:43;;;;;;;45.28;8.55;;;;;;;;;;5011161;28;20434;-43
2022/10/23 06:06:09;;;;;;;24.15;7.45;;;;;;;;;;5009167;28;20056;-47
2022/10/23 06:08:34;;;;;;;23.35;6.25;;;;;;;;;;5010177;28;20052;-43
2022/10/23 06:11:08;;;;;;;22.92;6.57;;;;;;;;;;5009975;28;20028;-46
2022/10/23 06:13:34;;;;;;;24.95;6.53;;;;;;;;;;5008432;28;20030;-42
2022/10/23 06:16:06;;;;;;;33.65;7.10;;;;;;;;;;5010252;28;20043;-42
2022/10/23 06:18:31;;;;;;;25.33;6.90;;;;;;;;;;5009879;28;20045;-43
2022/10/23 06:20:59;;;;;;;25.83;7.30;;;;;;;;;;5007459;28;20034;-43
2022/10/23 06:23:24;;;;;;;37.55;6.90;;;;;;;;;;5010621;28;20040;-42
2022/10/23 06:25:52;;;;;;;28.17;6.60;;;;;;;;;;5010533;28;20033;-43
2022/10/23 06:28:17;;;;;;;30.35;8.40;;;;;;;;;;5010115;28;20056;-44
2022/10/23 06:30:43;;;;;;;26.15;6.63;;;;;;;;;;5009966;28;20022;-43
2022/10/23 06:33:08;;;;;;;31.67;7.35;;;;;;;;;;5010702;28;20115;-43
2022/10/23 06:35:33;;;;;;;30.45;7.47;;;;;;;;;;5008675;28;20033;-43
2022/10/23 06:37:59;;;;;;;27.45;6.57;;;;;;;;;;5006469;28;20471;-46
2022/10/23 06:40:24;;;;;;;22.35;6.40;;;;;;;;;;5005895;28;20044;-44
2022/10/23 06:42:49;;;;;;;24.88;6.55;;;;;;;;;;5008887;28;20137;-44
2022/10/23 06:45:15;;;;;;;23.95;6.75;;;;;;;;;;5009448;28;20054;-43
2022/10/23 06:47:41;;;;;;;20.67;6.65;;;;;;;;;;5009396;28;20108;-45
2022/10/23 06:50:06;;;;;;;27.58;7.07;;;;;;;;;;5008651;28;20511;-43
2022/10/23 06:52:32;;;;;;;21.85;6.50;;;;;;;;;;5007283;28;20093;-43
2022/10/23 06:54:57;;;;;;;32.72;7.22;;;;;;;;;;5008489;28;20100;-43
2022/10/23 06:57:23;;;;;;;25.17;7.28;;;;;;;;;;5008210;28;20061;-43
2022/10/23 06:59:49;;;;;;;21.80;6.68;;;;;;;;;;5004950;28;20030;-45
2022/10/23 07:02:14;;;;;;;34.75;6.55;;;;;;;;;;5009865;28;20112;-42
2022/10/23 07:04:40;;;;;;;20.25;7.55;;;;;;;;;;5006950;28;20475;-42
2022/10/23 07:07:06;;;;;;;30.42;7.75;;;;;;;;;;5008621;28;20461;-47
2022/10/23 07:09:31;;;;;;;31.98;7.55;;;;;;;;;;5007677;28;20030;-43
2022/10/23 07:11:56;;;;;;;21.20;6.60;;;;;;;;;;5006959;28;20061;-43
2022/10/23 07:14:22;;;;;;;25.77;7.95;;;;;;;;;;5006517;28;20030;-44
2022/10/23 07:16:47;;;;;;;25.15;6.80;;;;;;;;;;4999512;28;20398;-43
2022/10/23 07:19:12;;;;;;;29.38;7.63;;;;;;;;;;4995801;28;20053;-44
2022/10/23 07:21:38;;;;;;;26.33;7.82;;;;;;;;;;5000552;28;20042;-43
2022/10/23 07:24:03;;;;;;;28.48;7.35;;;;;;;;;;5000589;28;20517;-45
2022/10/23 07:26:31;;;;;;;27.20;6.82;;;;;;;;;;5000939;28;20140;-44
2022/10/23 07:28:56;;;;;;;20.17;6.97;;;;;;;;;;5000710;28;20049;-43
2022/10/23 07:31:23;;;;;;;20.52;6.97;;;;;;;;;;5002884;28;20487;-43
2022/10/23 07:33:49;;;;;;;29.17;7.20;;;;;;;;;;5001055;28;20076;-44
2022/10/23 07:36:14;;;;;;;27.30;7.30;;;;;;;;;;4996843;28;21184;-44
2022/10/23 07:38:40;;;;;;;27.73;7.72;;;;;;;;;;5005363;28;20052;-44
2022/10/23 07:41:05;;;;;;;29.92;7.47;;;;;;;;;;4998920;28;20037;-44
2022/10/23 07:43:31;;;;;;;27.20;7.00;;;;;;;;;;4999217;28;20586;-43
2022/10/23 07:45:56;;;;;;;32.38;7.25;;;;;;;;;;5007299;28;20034;-46
2022/10/23 07:48:22;;;;;;;27.38;7.32;;;;;;;;;;5004161;28;20500;-43
2022/10/23 07:50:49;;;;;;;27.92;7.78;;;;;;;;;;5003020;28;20053;-43
2022/10/23 07:53:19;;;;;;;23.95;6.60;;;;;;;;;;4999348;28;20057;-43
2022/10/23 07:55:56;;;;;;;40.30;8.82;;;;;;;;;;4999985;28;20033;-42
2022/10/23 07:58:22;;;;;;;22.52;7.63;;;;;;;;;;5000903;28;20030;-42
2022/10/23 08:00:57;;;;;;;25.83;7.53;;;;;;;;;;4998809;28;20030;-42
2022/10/23 08:03:24;;;;;;;31.60;7.50;;;;;;;;;;5004290;28;20054;-44
2022/10/23 08:05:51;;;;;;;22.67;6.97;;;;;;;;;;5000497;28;20073;-43
2022/10/23 08:08:16;;;;;;;30.63;7.28;;;;;;;;;;5000265;28;20109;-46
2022/10/23 08:10:42;;;;;;;24.92;7.13;;;;;;;;;;5001440;28;20483;-43
2022/10/23 08:13:10;;;;;;;28.17;7.47;;;;;;;;;;5004985;28;20038;-44
2022/10/23 08:15:36;;;;;;;36.28;7.75;;;;;;;;;;5006495;28;20033;-44
2022/10/23 08:18:01;;;;;;;23.27;6.75;;;;;;;;;;5005298;28;20045;-45
2022/10/23 08:20:26;;;;;;;26.15;7.68;;;;;;;;;;5000916;28;20116;-43
2022/10/23 08:22:52;;;;;;;30.55;6.75;;;;;;;;;;5002839;28;20118;-44
2022/10/23 08:25:17;;;;;;;24.00;6.90;;;;;;;;;;5005924;28;20050;-44
2022/10/23 08:27:43;;;;;;;25.30;7.50;;;;;;;;;;5002373;28;20045;-47
2022/10/23 08:30:08;;;;;;;24.45;6.90;;;;;;;;;;5003044;28;20029;-47
2022/10/23 08:32:34;;;;;;;22.85;7.05;;;;;;;;;;5004094;28;20057;-43
2022/10/23 08:34:59;;;;;;;38.67;7.72;;;;;;;;;;5002666;28;20029;-44
2022/10/23 08:37:25;;;;;;;30.08;7.10;;;;;;;;;;4999886;28;20425;-43
2022/10/23 08:39:50;;;;;;;29.90;7.70;;;;;;;;;;5000736;28;20104;-44
2022/10/23 08:42:22;;;;;;;26.02;6.82;;;;;;;;;;4998717;28;20054;-44
2022/10/23 08:45:03;;;;;;;27.63;6.50;;;;;;;;;;5002576;28;20026;-46
2022/10/23 08:47:46;;;;;;;29.63;8.73;;;;;;;;;;5000925;28;20045;-44
2022/10/23 08:50:21;;;;;;;27.63;7.13;;;;;;;;;;4999614;28;20089;-43
2022/10/23 08:52:51;;;;;;;33.03;6.97;;;;;;;;;;4995770;28;20125;-48
2022/10/23 08:55:20;;;;;;;28.70;7.78;;;;;;;;;;5002769;28;20040;-44
2022/10/23 08:58:09;;;;;;;18.48;6.65;;;;;;;;;;5003852;28;20576;-44
2022/10/23 09:00:35;;;;;;;23.42;6.70;;;;;;;;;;5004586;28;20030;-44
2022/10/23 09:03:04;;;;;;;26.58;7.13;;;;;;;;;;4998738;28;20045;-44
2022/10/23 09:05:34;;;;;;;28.13;7.85;;;;;;;;;;5001390;28;20026;-43
2022/10/23 09:08:14;;;;;;;19.33;6.68;;;;;;;;;;4998079;28;20624;-44
2022/10/23 09:10:51;;;;;;;31.77;7.97;;;;;;;;;;5001049;28;20034;-43
2022/10/23 09:13:39;;;;;;;28.67;6.72;;;;;;;;;;4996727;28;20050;-44
2022/10/23 09:16:16;;;;;;;34.38;6.57;;;;;;;;;;4996673;28;20403;-46
2022/10/23 09:18:41;;;;;;;34.17;7.53;;;;;;;;;;5000434;28;20056;-47
2022/10/23 09:21:08;;;;;;;32.47;7.07;;;;;;;;;;4999865;28;20030;-43
2022/10/23 09:23:34;;;;;;;28.83;7.93;;;;;;;;;;5000952;28;20473;-44
2022/10/23 09:26:01;;;;;;;19.63;6.80;;;;;;;;;;5000983;28;20030;-46
2022/10/23 09:28:31;;;;;;;23.83;7.00;;;;;;;;;;5004437;28;20033;-44
2022/10/23 09:31:07;;;;;;;26.55;7.05;;;;;;;;;;5005965;28;20057;-44
2022/10/23 09:33:33;;;;;;;25.48;6.63;;;;;;;;;;5004008;28;20033;-43
2022/10/23 09:36:14;;;;;;;30.80;6.70;;;;;;;;;;5009156;28;20041;-43
2022/10/23 09:38:45;;;;;;;27.02;7.40;;;;;;;;;;5006072;28;20029;-44
2022/10/23 09:41:36;;;;;;;27.90;7.17;;;;;;;;;;5006517;28;20049;-43
2022/10/23 09:44:07;;;;;;;35.03;7.68;;;;;;;;;;5006106;28;20971;-43
2022/10/23 09:46:49;;;;;;;28.20;7.68;;;;;;;;;;5003003;28;20046;-43
2022/10/23 09:49:27;;;;;;;23.58;6.88;;;;;;;;;;5004389;28;20084;-43
2022/10/23 09:52:18;;;;;;;26.27;6.85;;;;;;;;;;5006218;28;20487;-43
2022/10/23 09:54:59;;;;;;;21.77;6.80;;;;;;;;;;5009290;28;20596;-43
2022/10/23 09:57:40;;;;;;;28.40;7.03;;;;;;;;;;5005520;28;20041;-44
2022/10/23 10:00:26;;;;;;;25.27;6.75;;;;;;;;;;5008517;28;20030;-43
2022/10/23 10:03:05;;;;;;;30.05;6.97;;;;;;;;;;5005529;28;20514;-43
2022/10/23 10:05:34;;;;;;;21.38;5.93;;;;;;;;;;5007316;28;20506;-43
2022/10/23 10:08:26;;;;;;;30.20;7.30;;;;;;;;;;5007176;28;20049;-43
2022/10/23 10:11:18;;;;;;;26.23;6.90;;;;;;;;;;4995805;28;20399;-45
2022/10/23 10:14:02;;;;;;;23.67;6.57;;;;;;;;;;4996020;28;20049;-42
2022/10/23 10:17:03;;;;;;;26.98;7.57;;;;;;;;;;4998743;28;20092;-44
2022/10/23 10:19:38;;;;;;;18.38;6.85;;;;;;;;;;5007290;28;20030;-45
2022/10/23 10:22:24;;;;;;;20.95;6.47;;;;;;;;;;4999004;28;20069;-43
2022/10/23 10:25:07;;;;;;;25.52;6.75;;;;;;;;;;5004350;28;20037;-43
2022/10/23 10:28:14;;;;;;;35.28;7.68;;;;;;;;;;5002606;28;20045;-46
2022/10/23 10:31:09;;;;;;;25.48;6.85;;;;;;;;;;5005890;28;20032;-49
2022/10/23 10:33:43;;;;;;;28.63;7.43;;;;;;;;;;4997208;28;21538;-46
2022/10/23 10:36:45;;;;;;;19.38;6.30;;;;;;;;;;4994651;28;20553;-43
2022/10/23 10:40:01;;;;;;;27.55;7.15;;;;;;;;;;4995918;28;20188;-44
2022/10/23 10:42:54;;;;;;;20.42;6.38;;;;;;;;;;4958677;28;20322;-44
2022/10/23 10:45:45;;;;;;;30.95;7.40;;;;;;;;;;4957885;28;20039;-44
2022/10/23 10:48:30;;;;;;;20.88;6.55;;;;;;;;;;4958162;28;20170;-44
2022/10/23 10:51:07;;;;;;;23.67;6.68;;;;;;;;;;4960138;28;20043;-45
2022/10/23 10:53:53;;;;;;;27.92;7.18;;;;;;;;;;4961861;28;20615;-44
2022/10/23 10:56:24;;;;;;;21.33;6.57;;;;;;;;;;4957988;28;20049;-44
2022/10/23 10:58:53;;;;;;;18.33;6.80;;;;;;;;;;4962658;28;20066;-45
2022/10/23 11:01:36;;;;;;;21.50;6.45;;;;;;;;;;4962388;28;20114;-43
2022/10/23 11:04:32;;;;;;;23.35;6.65;;;;;;;;;;4958017;28;20039;-46
2022/10/23 11:07:04;;;;;;;23.50;6.38;;;;;;;;;;4959607;28;20384;-45
2022/10/23 11:09:30;;;;;;;26.25;7.00;;;;;;;;;;4961311;28;20057;-46
2022/10/23 11:11:56;;;;;;;20.58;5.78;;;;;;;;;;4961657;28;20315;-44
2022/10/23 11:14:24;;;;;;;19.08;6.32;;;;;;;;;;4958687;28;20038;-44
2022/10/23 11:16:58;;;;;;;28.92;7.20;;;;;;;;;;4983658;28;20046;-45
2022/10/23 11:19:33;;;;;;;26.38;6.47;;;;;;;;;;5007080;28;20093;-42
2022/10/23 11:22:26;;;;;;;25.05;6.65;;;;;;;;;;5005182;28;20047;-42
2022/10/23 11:25:07;;;;;;;23.38;6.35;;;;;;;;;;5005184;28;20483;-42
2022/10/23 11:27:51;;;;;;;24.58;6.97;;;;;;;;;;5000967;28;20042;-43
2022/10/23 11:30:31;;;;;;;26.20;6.28;;;;;;;;;;5003680;28;20037;-42
2022/10/23 11:32:57;;;;;;;31.98;6.38;;;;;;;;;;5004523;28;20049;-42
2022/10/23 11:35:43;;;;;;;26.10;7.20;;;;;;;;;;5003803;28;20786;-43
2022/10/23 11:38:23;;;;;;;24.50;7.05;;;;;;;;;;5004659;28;20100;-42
2022/10/23 11:41:25;;;;;;;30.33;7.22;;;;;;;;;;5001647;28;20672;-42
2022/10/23 11:43:52;;;;;;;;;;;;;;;;;;4994454;28;20049;-44
2022/10/23 11:46:37;;;;;;;21.05;6.22;;;;;;;;;;5008684;28;20263;-42
2022/10/23 11:49:04;;;;;;;27.63;7.10;;;;;;;;;;5007873;28;20037;-43
2022/10/23 11:51:41;;;;;;;30.85;6.40;;;;;;;;;;5005680;28;20053;-47
2022/10/23 11:54:15;;;;;;;23.40;6.78;;;;;;;;;;5019350;28;20041;-43
2022/10/23 11:56:53;;;;;;;26.88;7.07;;;;;;;;;;5004008;28;20046;-42
2022/10/23 11:59:27;;;;;;;18.42;6.63;;;;;;;;;;4998909;28;20030;-43
2022/10/23 12:01:55;;;;;;;27.42;6.38;;;;;;;;;;5000668;28;20053;-44
2022/10/23 12:04:25;;;;;;;18.48;6.18;;;;;;;;;;5002517;28;20026;-48
2022/10/23 12:06:58;;;;;;;28.15;7.40;;;;;;;;;;5003762;28;20030;-44
2022/10/23 12:09:40;;;;;;;22.20;6.88;;;;;;;;;;5006362;28;20037;-44
2022/10/23 12:12:05;;;;;;;;;;;;;;;;;;5003967;28;20080;-43
2022/10/23 12:14:36;;;;;;;24.95;6.47;;;;;;;;;;5006551;28;20445;-41
2022/10/23 12:17:17;;;;;;;23.55;6.60;;;;;;;;;;5001781;28;20045;-42
2022/10/23 12:19:48;;;;;;;21.38;6.50;;;;;;;;;;5002515;28;20033;-42
2022/10/23 12:22:15;;;;;;;21.90;6.43;;;;;;;;;;5001526;28;20057;-43
2022/10/23 12:25:04;;;;;;;18.58;6.03;;;;;;;;;;5004626;28;20064;-41
2022/10/23 12:27:39;;;;;;;24.90;7.63;;;;;;;;;;5004802;28;20995;-42
2022/10/23 12:30:27;;;;;;;24.50;7.35;;;;;;;;;;5004933;28;20026;-42
2022/10/23 12:33:20;;;;;;;26.65;7.15;;;;;;;;;;5033976;28;20065;-42
2022/10/23 12:35:52;;;;;;;22.85;6.78;;;;;;;;;;5005028;28;20076;-43
2022/10/23 12:38:31;;;;;;;28.77;6.68;;;;;;;;;;5003393;28;20040;-43
2022/10/23 12:41:11;;;;;;;24.30;6.47;;;;;;;;;;4997347;28;20022;-46
2022/10/23 12:43:57;;;;;;;31.23;7.57;;;;;;;;;;5020408;22;23075;-48
2022/10/23 12:46:45;;;;;;;27.35;6.00;;;;;;;;;;4942225;28;20043;-49
2022/10/23 12:49:22;;;;;;;22.27;6.93;;;;;;;;;;4945653;29;20031;-46
2022/10/23 12:51:57;;;;;;;28.52;6.50;;;;;;;;;;4947729;28;20039;-48
2022/10/23 12:54:23;;;;;;;30.27;5.97;;;;;;;;;;4946391;29;20036;-48
2022/10/23 12:56:49;;;;;;;28.23;6.60;;;;;;;;;;4950064;28;20070;-46
2022/10/23 12:59:17;;;;;;;33.55;6.53;;;;;;;;;;4959326;28;20030;-48
2022/10/23 13:01:43;;;;;;;28.23;7.10;;;;;;;;;;4951228;28;20047;-47
2022/10/23 13:04:27;;;;;;;25.98;6.97;;;;;;;;;;4953402;28;20387;-52
2022/10/23 13:06:54;;;;;;;38.72;6.85;;;;;;;;;;4942424;28;20070;-48
2022/10/23 13:09:39;;;;;;;25.55;6.65;;;;;;;;;;4931016;29;20067;-46
2022/10/23 13:12:06;;;;;;;24.98;6.82;;;;;;;;;;4948344;28;20507;-46
2022/10/23 13:14:35;;;;;;;40.45;7.15;;;;;;;;;;4964404;28;21016;-48
2022/10/23 13:17:06;;;;;;;20.35;5.53;;;;;;;;;;4953036;28;20043;-51
2022/10/23 13:19:32;;;;;;;32.17;6.53;;;;;;;;;;4951197;29;20051;-49
2022/10/23 13:21:59;;;;;;;27.92;6.40;;;;;;;;;;4954892;28;20507;-50
2022/10/23 13:24:27;;;;;;;31.63;8.27;;;;;;;;;;4956033;28;20430;-47
2022/10/23 13:26:53;;;;;;;28.83;7.53;;;;;;;;;;4948133;28;20416;-49
2022/10/23 13:29:32;;;;;;;38.65;9.25;;;;;;;;;;4933112;29;20107;-50
2022/10/23 13:32:20;;;;;;;30.48;7.03;;;;;;;;;;4943575;28;20106;-53
2022/10/23 13:34:51;;;;;;;40.30;7.15;;;;;;;;;;4964690;28;20102;-48
2022/10/23 13:37:24;;;;;;;23.08;6.13;;;;;;;;;;4944641;28;20036;-48
2022/10/23 13:40:23;;;;;;;30.27;6.53;;;;;;;;;;4932251;29;20102;-49
2022/10/23 13:42:51;;;;;;;34.65;7.03;;;;;;;;;;4922319;29;20055;-51
2022/10/23 13:45:23;;;;;;;25.55;6.07;;;;;;;;;;4940735;29;20044;-48
2022/10/23 13:47:48;;;;;;;;;;;;;;;;;;4965691;28;20047;-48
2022/10/23 13:50:14;;;;;;;35.38;7.10;;;;;;;;;;4971720;28;20616;-47
2022/10/23 13:52:39;;;;;;;35.28;5.90;;;;;;;;;;4977411;28;20047;-46
2022/10/23 13:55:18;;;;;;;33.15;6.65;;;;;;;;;;4981753;28;20038;-49
2022/10/23 13:57:43;;;;;;;26.20;6.32;;;;;;;;;;4953295;28;20451;-50
2022/10/23 14:00:09;;;;;;;31.95;6.60;;;;;;;;;;4950226;29;20027;-45
2022/10/23 14:02:35;;;;;;;26.38;6.18;;;;;;;;;;4963539;28;20403;-52
2022/10/23 14:05:00;;;;;;;36.92;6.50;;;;;;;;;;4974712;28;20028;-45
2022/10/23 14:07:25;;;;;;;34.90;6.63;;;;;;;;;;4954859;28;20039;-51
2022/10/23 14:09:51;;;;;;;27.08;6.72;;;;;;;;;;4949678;29;20015;-48
2022/10/23 14:12:16;;;;;;;23.27;6.03;;;;;;;;;;4952503;28;20042;-52
2022/10/23 14:14:41;;;;;;;32.65;6.28;;;;;;;;;;4960910;28;20023;-48
2022/10/23 14:17:07;;;;;;;26.77;6.47;;;;;;;;;;4947772;28;20712;-50
2022/10/23 14:19:33;;;;;;;29.52;6.35;;;;;;;;;;4950328;28;20023;-48
2022/10/23 14:21:58;;;;;;;24.17;6.47;;;;;;;;;;4951351;29;20551;-45
2022/10/23 14:24:23;;;;;;;32.00;6.50;;;;;;;;;;4947751;28;20023;-49
2022/10/23 14:26:49;;;;;;;20.75;6.03;;;;;;;;;;4948981;28;20070;-44
2022/10/23 14:29:14;;;;;;;26.33;6.70;;;;;;;;;;4947176;28;20025;-50
2022/10/23 14:31:40;;;;;;;26.83;7.30;;;;;;;;;;4946823;28;20395;-46
2022/10/23 14:34:05;;;;;;;24.92;6.47;;;;;;;;;;4951597;29;20035;-47
2022/10/23 14:36:30;;;;;;;30.50;6.88;;;;;;;;;;4960187;28;20058;-48
2022/10/23 14:38:57;;;;;;;31.48;6.50;;;;;;;;;;4982206;28;20090;-47
2022/10/23 14:41:23;;;;;;;29.75;7.43;;;;;;;;;;4978395;28;20046;-50
2022/10/23 14:43:49;;;;;;;24.30;6.25;;;;;;;;;;4980438;28;20027;-49
2022/10/23 14:46:18;;;;;;;35.83;6.90;;;;;;;;;;4981637;28;20034;-47
2022/10/23 14:48:43;;;;;;;33.45;6.57;;;;;;;;;;4979953;28;20037;-51
2022/10/23 14:51:21;;;;;;;123.93;9.38;;;;;;;;;;4974643;28;20486;-46
2022/10/23 14:53:47;;;;;;;36.97;7.63;;;;;;;;;;4947392;28;20050;-51